sensor_id;sensor_type;location;lat;lon;timestamp;P1;durP1;ratioP1;P2;durP2;ratioP2
70829;SDS011;58451;51.550;7.208;2023-07-31T00:00:16;6.90;;;2.30;;
70829;SDS011;58451;51.550;7.208;2023-07-31T00:01:48;6.70;;;2.20;;
70829;SDS011;58451;51.550;7.208;2023-07-31T00:03:20;7.50;;;2.30;;
70829;SDS011;58451;51.550;7.208;2023-07-31T00:04:52;7.40;;;2.50;;
70829;SDS011;58451;51.550;7.208;2023-07-31T00:06:24;7.60;;;2.30;;
70829;SDS011;58451;51.550;7.208;2023-07-31T00:07:56;8.30;;;2.70;;
70829;SDS011;58451;51.550;7.208;2023-07-31T00:09:28;7.80;;;2.20;;
70829;SDS011;58451;51.550;7.208;2023-07-31T00:11:00;7.40;;;2.60;;
70829;SDS011;58451;51.550;7.208;2023-07-31T00:12:32;6.00;;;2.00;;
70829;SDS011;58451;51.550;7.208;2023-07-31T00:14:04;5.70;;;1.90;;
70829;SDS011;58451;51.550;7.208;2023-07-31T00:15:36;6.10;;;1.90;;
70829;SDS011;58451;51.550;7.208;2023-07-31T00:17:08;5.00;;;1.50;;
70829;SDS011;58451;51.550;7.208;2023-07-31T00:18:40;5.80;;;2.00;;
70829;SDS011;58451;51.550;7.208;2023-07-31T00:20:12;5.80;;;1.90;;
70829;SDS011;58451;51.550;7.208;2023-07-31T00:21:44;5.50;;;2.00;;
70829;SDS011;58451;51.550;7.208;2023-07-31T00:23:16;6.90;;;2.20;;
70829;SDS011;58451;51.550;7.208;2023-07-31T00:24:48;5.10;;;1.90;;
70829;SDS011;58451;51.550;7.208;2023-07-31T00:26:20;6.70;;;2.30;;
70829;SDS011;58451;51.550;7.208;2023-07-31T00:27:52;9.10;;;3.50;;
70829;SDS011;58451;51.550;7.208;2023-07-31T00:29:24;7.80;;;2.80;;
70829;SDS011;58451;51.550;7.208;2023-07-31T00:30:56;10.20;;;3.50;;
70829;SDS011;58451;51.550;7.208;2023-07-31T00:32:30;8.90;;;3.10;;
70829;SDS011;58451;51.550;7.208;2023-07-31T00:34:03;9.70;;;3.20;;
70829;SDS011;58451;51.550;7.208;2023-07-31T00:35:36;9.40;;;3.00;;
70829;SDS011;58451;51.550;7.208;2023-07-31T00:37:08;9.60;;;3.40;;
70829;SDS011;58451;51.550;7.208;2023-07-31T00:38:40;11.60;;;3.30;;
70829;SDS011;58451;51.550;7.208;2023-07-31T00:40:12;13.10;;;3.90;;
70829;SDS011;58451;51.550;7.208;2023-07-31T00:41:45;10.30;;;3.40;;
70829;SDS011;58451;51.550;7.208;2023-07-31T00:43:17;9.50;;;3.30;;
70829;SDS011;58451;51.550;7.208;2023-07-31T00:44:49;11.60;;;3.60;;
70829;SDS011;58451;51.550;7.208;2023-07-31T00:46:21;8.90;;;3.30;;
70829;SDS011;58451;51.550;7.208;2023-07-31T00:47:53;8.40;;;2.80;;
70829;SDS011;58451;51.550;7.208;2023-07-31T00:49:26;12.00;;;3.40;;
70829;SDS011;58451;51.550;7.208;2023-07-31T00:50:59;11.20;;;3.50;;
70829;SDS011;58451;51.550;7.208;2023-07-31T00:52:32;11.50;;;4.00;;
70829;SDS011;58451;51.550;7.208;2023-07-31T00:54:06;11.60;;;3.90;;
70829;SDS011;58451;51.550;7.208;2023-07-31T00:55:38;10.60;;;3.60;;
70829;SDS011;58451;51.550;7.208;2023-07-31T00:57:10;11.70;;;4.10;;
70829;SDS011;58451;51.550;7.208;2023-07-31T00:58:42;9.90;;;3.80;;
70829;SDS011;58451;51.550;7.208;2023-07-31T01:00:14;11.00;;;4.20;;
70829;SDS011;58451;51.550;7.208;2023-07-31T01:04:09;15.80;;;5.20;;
70829;SDS011;58451;51.550;7.208;2023-07-31T01:08:04;11.90;;;3.90;;
70829;SDS011;58451;51.550;7.208;2023-07-31T01:09:53;13.80;;;4.10;;
70829;SDS011;58451;51.550;7.208;2023-07-31T01:11:28;13.20;;;3.80;;
70829;SDS011;58451;51.550;7.208;2023-07-31T01:13:03;12.80;;;4.70;;
70829;SDS011;58451;51.550;7.208;2023-07-31T01:14:35;13.00;;;4.40;;
70829;SDS011;58451;51.550;7.208;2023-07-31T01:16:07;13.20;;;3.90;;
70829;SDS011;58451;51.550;7.208;2023-07-31T01:17:42;13.80;;;4.50;;
70829;SDS011;58451;51.550;7.208;2023-07-31T01:19:15;14.50;;;4.20;;
70829;SDS011;58451;51.550;7.208;2023-07-31T01:20:56;14.60;;;4.60;;
70829;SDS011;58451;51.550;7.208;2023-07-31T01:26:21;16.20;;;4.10;;
70829;SDS011;58451;51.550;7.208;2023-07-31T01:28:04;12.00;;;3.50;;
70829;SDS011;58451;51.550;7.208;2023-07-31T01:31:48;15.00;;;3.40;;
70829;SDS011;58451;51.550;7.208;2023-07-31T01:33:24;10.00;;;3.40;;
70829;SDS011;58451;51.550;7.208;2023-07-31T01:34:58;14.20;;;3.60;;
70829;SDS011;58451;51.550;7.208;2023-07-31T01:36:31;13.80;;;3.50;;
70829;SDS011;58451;51.550;7.208;2023-07-31T01:38:04;14.30;;;3.60;;
70829;SDS011;58451;51.550;7.208;2023-07-31T01:39:36;15.70;;;3.60;;
70829;SDS011;58451;51.550;7.208;2023-07-31T01:41:08;14.10;;;4.20;;
70829;SDS011;58451;51.550;7.208;2023-07-31T01:42:40;11.70;;;3.40;;
70829;SDS011;58451;51.550;7.208;2023-07-31T01:44:12;12.40;;;3.50;;
70829;SDS011;58451;51.550;7.208;2023-07-31T01:45:44;13.10;;;3.60;;
70829;SDS011;58451;51.550;7.208;2023-07-31T01:47:16;16.20;;;3.60;;
70829;SDS011;58451;51.550;7.208;2023-07-31T01:48:48;11.00;;;3.10;;
70829;SDS011;58451;51.550;7.208;2023-07-31T01:50:20;13.00;;;4.00;;
70829;SDS011;58451;51.550;7.208;2023-07-31T01:51:52;10.20;;;3.10;;
70829;SDS011;58451;51.550;7.208;2023-07-31T01:53:24;11.60;;;2.60;;
70829;SDS011;58451;51.550;7.208;2023-07-31T01:54:56;11.90;;;3.30;;
70829;SDS011;58451;51.550;7.208;2023-07-31T01:56:28;13.60;;;3.30;;
70829;SDS011;58451;51.550;7.208;2023-07-31T01:58:00;10.40;;;3.00;;
70829;SDS011;58451;51.550;7.208;2023-07-31T01:59:32;10.70;;;2.90;;
70829;SDS011;58451;51.550;7.208;2023-07-31T02:01:04;9.60;;;3.50;;
70829;SDS011;58451;51.550;7.208;2023-07-31T02:02:38;14.50;;;3.50;;
70829;SDS011;58451;51.550;7.208;2023-07-31T02:04:10;13.20;;;3.60;;
70829;SDS011;58451;51.550;7.208;2023-07-31T02:05:46;11.00;;;3.10;;
70829;SDS011;58451;51.550;7.208;2023-07-31T02:07:19;12.50;;;3.00;;
70829;SDS011;58451;51.550;7.208;2023-07-31T02:08:51;8.60;;;2.60;;
70829;SDS011;58451;51.550;7.208;2023-07-31T02:10:23;12.90;;;3.20;;
70829;SDS011;58451;51.550;7.208;2023-07-31T02:11:55;9.30;;;2.80;;
70829;SDS011;58451;51.550;7.208;2023-07-31T02:13:27;9.70;;;3.00;;
70829;SDS011;58451;51.550;7.208;2023-07-31T02:14:59;11.90;;;2.90;;
70829;SDS011;58451;51.550;7.208;2023-07-31T02:16:31;10.10;;;3.00;;
70829;SDS011;58451;51.550;7.208;2023-07-31T02:18:05;11.50;;;3.00;;
70829;SDS011;58451;51.550;7.208;2023-07-31T02:19:36;9.60;;;2.60;;
70829;SDS011;58451;51.550;7.208;2023-07-31T02:21:09;9.40;;;2.90;;
70829;SDS011;58451;51.550;7.208;2023-07-31T02:22:41;12.90;;;3.10;;
70829;SDS011;58451;51.550;7.208;2023-07-31T02:24:13;10.80;;;2.90;;
70829;SDS011;58451;51.550;7.208;2023-07-31T02:25:45;14.10;;;2.90;;
70829;SDS011;58451;51.550;7.208;2023-07-31T02:27:18;11.90;;;3.10;;
70829;SDS011;58451;51.550;7.208;2023-07-31T02:28:50;10.90;;;2.80;;
70829;SDS011;58451;51.550;7.208;2023-07-31T02:30:21;12.10;;;2.60;;
70829;SDS011;58451;51.550;7.208;2023-07-31T02:31:54;9.60;;;2.70;;
70829;SDS011;58451;51.550;7.208;2023-07-31T02:33:26;11.40;;;2.70;;
70829;SDS011;58451;51.550;7.208;2023-07-31T02:34:58;8.90;;;2.60;;
70829;SDS011;58451;51.550;7.208;2023-07-31T02:36:30;15.00;;;3.30;;
70829;SDS011;58451;51.550;7.208;2023-07-31T02:38:02;9.00;;;2.80;;
70829;SDS011;58451;51.550;7.208;2023-07-31T02:39:34;11.40;;;3.10;;
70829;SDS011;58451;51.550;7.208;2023-07-31T02:41:06;10.20;;;2.50;;
70829;SDS011;58451;51.550;7.208;2023-07-31T02:42:38;12.10;;;2.90;;
70829;SDS011;58451;51.550;7.208;2023-07-31T02:44:10;12.50;;;2.80;;
70829;SDS011;58451;51.550;7.208;2023-07-31T02:45:51;8.90;;;2.10;;
70829;SDS011;58451;51.550;7.208;2023-07-31T02:47:24;11.40;;;2.10;;
70829;SDS011;58451;51.550;7.208;2023-07-31T02:48:56;9.50;;;2.30;;
70829;SDS011;58451;51.550;7.208;2023-07-31T02:50:29;8.60;;;2.30;;
70829;SDS011;58451;51.550;7.208;2023-07-31T02:52:01;9.50;;;2.30;;
70829;SDS011;58451;51.550;7.208;2023-07-31T02:53:33;9.10;;;2.30;;
70829;SDS011;58451;51.550;7.208;2023-07-31T02:55:06;11.00;;;2.50;;
70829;SDS011;58451;51.550;7.208;2023-07-31T02:56:39;11.00;;;2.10;;
70829;SDS011;58451;51.550;7.208;2023-07-31T02:58:11;9.40;;;2.70;;
70829;SDS011;58451;51.550;7.208;2023-07-31T02:59:43;14.80;;;3.10;;
70829;SDS011;58451;51.550;7.208;2023-07-31T03:01:15;12.30;;;2.40;;
70829;SDS011;58451;51.550;7.208;2023-07-31T03:02:47;13.30;;;2.80;;
70829;SDS011;58451;51.550;7.208;2023-07-31T03:04:19;11.10;;;2.80;;
70829;SDS011;58451;51.550;7.208;2023-07-31T03:05:51;10.20;;;2.70;;
70829;SDS011;58451;51.550;7.208;2023-07-31T03:07:24;11.60;;;2.60;;
70829;SDS011;58451;51.550;7.208;2023-07-31T03:08:56;10.10;;;2.60;;
70829;SDS011;58451;51.550;7.208;2023-07-31T03:10:28;10.70;;;2.50;;
70829;SDS011;58451;51.550;7.208;2023-07-31T03:12:00;11.30;;;2.30;;
70829;SDS011;58451;51.550;7.208;2023-07-31T03:13:32;12.40;;;2.80;;
70829;SDS011;58451;51.550;7.208;2023-07-31T03:15:04;10.90;;;2.40;;
70829;SDS011;58451;51.550;7.208;2023-07-31T03:16:36;10.90;;;2.50;;
70829;SDS011;58451;51.550;7.208;2023-07-31T03:18:09;9.80;;;2.70;;
70829;SDS011;58451;51.550;7.208;2023-07-31T03:19:41;12.50;;;2.90;;
70829;SDS011;58451;51.550;7.208;2023-07-31T03:21:14;11.90;;;2.90;;
70829;SDS011;58451;51.550;7.208;2023-07-31T03:22:46;13.00;;;2.90;;
70829;SDS011;58451;51.550;7.208;2023-07-31T03:24:17;13.30;;;2.80;;
70829;SDS011;58451;51.550;7.208;2023-07-31T03:26:05;12.60;;;3.10;;
70829;SDS011;58451;51.550;7.208;2023-07-31T03:27:37;13.00;;;2.90;;
70829;SDS011;58451;51.550;7.208;2023-07-31T03:29:10;14.90;;;3.00;;
70829;SDS011;58451;51.550;7.208;2023-07-31T03:30:41;10.60;;;2.90;;
70829;SDS011;58451;51.550;7.208;2023-07-31T03:32:13;10.60;;;2.90;;
70829;SDS011;58451;51.550;7.208;2023-07-31T03:33:45;12.00;;;2.70;;
70829;SDS011;58451;51.550;7.208;2023-07-31T03:35:17;13.40;;;2.90;;
70829;SDS011;58451;51.550;7.208;2023-07-31T03:36:49;13.10;;;3.00;;
70829;SDS011;58451;51.550;7.208;2023-07-31T03:38:21;10.50;;;2.70;;
70829;SDS011;58451;51.550;7.208;2023-07-31T03:39:52;11.70;;;2.80;;
70829;SDS011;58451;51.550;7.208;2023-07-31T03:41:24;10.10;;;2.80;;
70829;SDS011;58451;51.550;7.208;2023-07-31T03:42:56;9.50;;;2.60;;
70829;SDS011;58451;51.550;7.208;2023-07-31T03:44:28;10.70;;;3.10;;
70829;SDS011;58451;51.550;7.208;2023-07-31T03:46:00;11.60;;;3.10;;
70829;SDS011;58451;51.550;7.208;2023-07-31T03:47:32;11.00;;;2.80;;
70829;SDS011;58451;51.550;7.208;2023-07-31T03:49:04;13.70;;;2.80;;
70829;SDS011;58451;51.550;7.208;2023-07-31T03:50:36;10.80;;;2.60;;
70829;SDS011;58451;51.550;7.208;2023-07-31T03:52:08;12.20;;;3.10;;
70829;SDS011;58451;51.550;7.208;2023-07-31T03:53:40;9.80;;;2.50;;
70829;SDS011;58451;51.550;7.208;2023-07-31T03:55:12;12.80;;;3.00;;
70829;SDS011;58451;51.550;7.208;2023-07-31T03:56:44;10.50;;;2.60;;
70829;SDS011;58451;51.550;7.208;2023-07-31T03:58:15;11.00;;;2.70;;
70829;SDS011;58451;51.550;7.208;2023-07-31T03:59:47;12.50;;;2.90;;
70829;SDS011;58451;51.550;7.208;2023-07-31T04:01:19;9.60;;;2.10;;
70829;SDS011;58451;51.550;7.208;2023-07-31T04:02:51;10.80;;;2.40;;
70829;SDS011;58451;51.550;7.208;2023-07-31T04:04:23;9.20;;;2.70;;
70829;SDS011;58451;51.550;7.208;2023-07-31T04:05:55;10.40;;;2.30;;
70829;SDS011;58451;51.550;7.208;2023-07-31T04:07:28;12.00;;;2.90;;
70829;SDS011;58451;51.550;7.208;2023-07-31T04:08:59;12.80;;;3.40;;
70829;SDS011;58451;51.550;7.208;2023-07-31T04:10:31;11.10;;;2.80;;
70829;SDS011;58451;51.550;7.208;2023-07-31T04:12:05;10.60;;;2.70;;
70829;SDS011;58451;51.550;7.208;2023-07-31T04:13:37;11.30;;;2.30;;
70829;SDS011;58451;51.550;7.208;2023-07-31T04:15:09;14.20;;;2.80;;
70829;SDS011;58451;51.550;7.208;2023-07-31T04:16:41;9.30;;;2.00;;
70829;SDS011;58451;51.550;7.208;2023-07-31T04:18:13;10.90;;;2.60;;
70829;SDS011;58451;51.550;7.208;2023-07-31T04:19:45;9.80;;;2.40;;
70829;SDS011;58451;51.550;7.208;2023-07-31T04:21:17;10.20;;;2.50;;
70829;SDS011;58451;51.550;7.208;2023-07-31T04:22:49;11.30;;;2.80;;
70829;SDS011;58451;51.550;7.208;2023-07-31T04:24:21;11.50;;;2.90;;
70829;SDS011;58451;51.550;7.208;2023-07-31T04:25:56;10.80;;;2.80;;
70829;SDS011;58451;51.550;7.208;2023-07-31T04:27:28;10.90;;;2.50;;
70829;SDS011;58451;51.550;7.208;2023-07-31T04:28:59;8.90;;;2.70;;
70829;SDS011;58451;51.550;7.208;2023-07-31T04:30:31;9.00;;;2.60;;
70829;SDS011;58451;51.550;7.208;2023-07-31T04:32:03;13.00;;;2.90;;
70829;SDS011;58451;51.550;7.208;2023-07-31T04:33:35;11.10;;;2.90;;
70829;SDS011;58451;51.550;7.208;2023-07-31T04:35:07;11.60;;;3.00;;
70829;SDS011;58451;51.550;7.208;2023-07-31T04:36:39;9.30;;;2.50;;
70829;SDS011;58451;51.550;7.208;2023-07-31T04:38:12;10.10;;;2.30;;
70829;SDS011;58451;51.550;7.208;2023-07-31T04:39:44;12.60;;;2.90;;
70829;SDS011;58451;51.550;7.208;2023-07-31T04:41:15;9.40;;;2.60;;
70829;SDS011;58451;51.550;7.208;2023-07-31T04:42:47;8.60;;;2.50;;
70829;SDS011;58451;51.550;7.208;2023-07-31T04:44:19;11.20;;;2.80;;
70829;SDS011;58451;51.550;7.208;2023-07-31T04:45:51;11.30;;;2.50;;
70829;SDS011;58451;51.550;7.208;2023-07-31T04:47:25;11.90;;;2.90;;
70829;SDS011;58451;51.550;7.208;2023-07-31T04:48:57;11.30;;;2.90;;
70829;SDS011;58451;51.550;7.208;2023-07-31T04:50:29;12.90;;;3.00;;
70829;SDS011;58451;51.550;7.208;2023-07-31T04:52:02;10.80;;;2.60;;
70829;SDS011;58451;51.550;7.208;2023-07-31T04:53:34;11.20;;;3.00;;
70829;SDS011;58451;51.550;7.208;2023-07-31T04:55:08;12.10;;;2.90;;
70829;SDS011;58451;51.550;7.208;2023-07-31T04:56:41;11.40;;;3.10;;
70829;SDS011;58451;51.550;7.208;2023-07-31T04:58:13;10.00;;;2.90;;
70829;SDS011;58451;51.550;7.208;2023-07-31T04:59:44;11.50;;;2.80;;
70829;SDS011;58451;51.550;7.208;2023-07-31T05:01:19;10.70;;;2.80;;
70829;SDS011;58451;51.550;7.208;2023-07-31T05:02:50;10.10;;;3.30;;
70829;SDS011;58451;51.550;7.208;2023-07-31T05:04:23;9.60;;;2.40;;
70829;SDS011;58451;51.550;7.208;2023-07-31T05:05:54;10.20;;;2.50;;
70829;SDS011;58451;51.550;7.208;2023-07-31T05:07:26;11.40;;;3.20;;
70829;SDS011;58451;51.550;7.208;2023-07-31T05:08:58;10.80;;;2.80;;
70829;SDS011;58451;51.550;7.208;2023-07-31T05:10:30;9.90;;;2.80;;
70829;SDS011;58451;51.550;7.208;2023-07-31T05:12:04;8.50;;;2.70;;
70829;SDS011;58451;51.550;7.208;2023-07-31T05:13:37;8.90;;;2.50;;
70829;SDS011;58451;51.550;7.208;2023-07-31T05:15:09;10.60;;;2.70;;
70829;SDS011;58451;51.550;7.208;2023-07-31T05:16:41;13.90;;;3.10;;
70829;SDS011;58451;51.550;7.208;2023-07-31T05:18:14;9.30;;;2.50;;
70829;SDS011;58451;51.550;7.208;2023-07-31T05:19:46;9.90;;;2.70;;
70829;SDS011;58451;51.550;7.208;2023-07-31T05:21:17;10.70;;;2.80;;
70829;SDS011;58451;51.550;7.208;2023-07-31T05:22:50;9.10;;;2.70;;
70829;SDS011;58451;51.550;7.208;2023-07-31T05:24:22;10.50;;;3.00;;
70829;SDS011;58451;51.550;7.208;2023-07-31T05:25:54;9.50;;;2.70;;
70829;SDS011;58451;51.550;7.208;2023-07-31T05:27:26;9.70;;;2.70;;
70829;SDS011;58451;51.550;7.208;2023-07-31T05:28:58;10.20;;;2.70;;
70829;SDS011;58451;51.550;7.208;2023-07-31T05:30:30;11.40;;;2.50;;
70829;SDS011;58451;51.550;7.208;2023-07-31T05:32:03;9.10;;;2.70;;
70829;SDS011;58451;51.550;7.208;2023-07-31T05:33:35;7.80;;;2.30;;
70829;SDS011;58451;51.550;7.208;2023-07-31T05:35:07;9.50;;;2.60;;
70829;SDS011;58451;51.550;7.208;2023-07-31T05:36:39;11.10;;;3.00;;
70829;SDS011;58451;51.550;7.208;2023-07-31T05:38:11;11.60;;;3.10;;
70829;SDS011;58451;51.550;7.208;2023-07-31T05:39:43;10.30;;;2.90;;
70829;SDS011;58451;51.550;7.208;2023-07-31T05:41:15;9.00;;;2.70;;
70829;SDS011;58451;51.550;7.208;2023-07-31T05:42:47;8.30;;;2.70;;
70829;SDS011;58451;51.550;7.208;2023-07-31T05:44:19;10.00;;;2.80;;
70829;SDS011;58451;51.550;7.208;2023-07-31T05:45:51;11.70;;;3.10;;
70829;SDS011;58451;51.550;7.208;2023-07-31T05:47:23;10.10;;;2.90;;
70829;SDS011;58451;51.550;7.208;2023-07-31T05:48:55;10.50;;;2.90;;
70829;SDS011;58451;51.550;7.208;2023-07-31T05:50:27;10.80;;;3.20;;
70829;SDS011;58451;51.550;7.208;2023-07-31T05:51:58;10.30;;;2.80;;
70829;SDS011;58451;51.550;7.208;2023-07-31T05:53:30;10.00;;;2.70;;
70829;SDS011;58451;51.550;7.208;2023-07-31T05:55:02;11.80;;;3.10;;
70829;SDS011;58451;51.550;7.208;2023-07-31T05:56:34;9.60;;;3.00;;
70829;SDS011;58451;51.550;7.208;2023-07-31T05:58:06;12.50;;;2.80;;
70829;SDS011;58451;51.550;7.208;2023-07-31T05:59:38;9.40;;;2.90;;
70829;SDS011;58451;51.550;7.208;2023-07-31T06:01:10;12.50;;;3.20;;
70829;SDS011;58451;51.550;7.208;2023-07-31T06:02:42;13.10;;;2.90;;
70829;SDS011;58451;51.550;7.208;2023-07-31T06:04:14;8.70;;;2.90;;
70829;SDS011;58451;51.550;7.208;2023-07-31T06:05:46;9.10;;;2.90;;
70829;SDS011;58451;51.550;7.208;2023-07-31T06:07:18;9.50;;;2.70;;
70829;SDS011;58451;51.550;7.208;2023-07-31T06:08:50;10.50;;;3.30;;
70829;SDS011;58451;51.550;7.208;2023-07-31T06:10:22;7.70;;;2.50;;
70829;SDS011;58451;51.550;7.208;2023-07-31T06:11:54;8.50;;;2.90;;
70829;SDS011;58451;51.550;7.208;2023-07-31T06:13:26;9.70;;;3.00;;
70829;SDS011;58451;51.550;7.208;2023-07-31T06:14:58;12.10;;;3.50;;
70829;SDS011;58451;51.550;7.208;2023-07-31T06:16:30;11.00;;;3.50;;
70829;SDS011;58451;51.550;7.208;2023-07-31T06:18:02;10.30;;;2.80;;
70829;SDS011;58451;51.550;7.208;2023-07-31T06:19:36;8.30;;;2.80;;
70829;SDS011;58451;51.550;7.208;2023-07-31T06:21:09;12.10;;;3.40;;
70829;SDS011;58451;51.550;7.208;2023-07-31T06:22:42;9.40;;;3.30;;
70829;SDS011;58451;51.550;7.208;2023-07-31T06:24:14;11.40;;;3.40;;
70829;SDS011;58451;51.550;7.208;2023-07-31T06:25:50;12.90;;;2.80;;
70829;SDS011;58451;51.550;7.208;2023-07-31T06:27:22;9.20;;;3.00;;
70829;SDS011;58451;51.550;7.208;2023-07-31T06:28:54;12.70;;;4.00;;
70829;SDS011;58451;51.550;7.208;2023-07-31T06:30:25;10.70;;;2.90;;
70829;SDS011;58451;51.550;7.208;2023-07-31T06:31:58;9.50;;;3.40;;
70829;SDS011;58451;51.550;7.208;2023-07-31T06:33:34;8.70;;;2.90;;
70829;SDS011;58451;51.550;7.208;2023-07-31T06:35:06;9.40;;;2.90;;
70829;SDS011;58451;51.550;7.208;2023-07-31T06:36:38;8.20;;;2.60;;
70829;SDS011;58451;51.550;7.208;2023-07-31T06:38:11;9.00;;;3.40;;
70829;SDS011;58451;51.550;7.208;2023-07-31T06:39:43;8.90;;;3.10;;
70829;SDS011;58451;51.550;7.208;2023-07-31T06:41:14;9.90;;;3.20;;
70829;SDS011;58451;51.550;7.208;2023-07-31T06:42:46;11.80;;;3.50;;
70829;SDS011;58451;51.550;7.208;2023-07-31T06:44:18;10.40;;;3.00;;
70829;SDS011;58451;51.550;7.208;2023-07-31T06:45:50;9.70;;;3.30;;
70829;SDS011;58451;51.550;7.208;2023-07-31T06:47:23;8.00;;;2.90;;
70829;SDS011;58451;51.550;7.208;2023-07-31T06:48:54;10.80;;;4.00;;
70829;SDS011;58451;51.550;7.208;2023-07-31T06:50:27;11.30;;;3.80;;
70829;SDS011;58451;51.550;7.208;2023-07-31T06:51:59;11.40;;;3.60;;
70829;SDS011;58451;51.550;7.208;2023-07-31T06:53:31;8.90;;;3.20;;
70829;SDS011;58451;51.550;7.208;2023-07-31T06:55:16;13.90;;;4.00;;
70829;SDS011;58451;51.550;7.208;2023-07-31T06:56:50;11.70;;;3.70;;
70829;SDS011;58451;51.550;7.208;2023-07-31T06:58:22;9.40;;;3.30;;
70829;SDS011;58451;51.550;7.208;2023-07-31T06:59:54;8.70;;;3.20;;
70829;SDS011;58451;51.550;7.208;2023-07-31T07:01:25;9.30;;;2.80;;
70829;SDS011;58451;51.550;7.208;2023-07-31T07:02:59;11.20;;;3.70;;
70829;SDS011;58451;51.550;7.208;2023-07-31T07:04:31;11.40;;;3.20;;
70829;SDS011;58451;51.550;7.208;2023-07-31T07:06:02;10.90;;;3.50;;
70829;SDS011;58451;51.550;7.208;2023-07-31T07:07:35;9.70;;;3.30;;
70829;SDS011;58451;51.550;7.208;2023-07-31T07:09:07;9.80;;;2.80;;
70829;SDS011;58451;51.550;7.208;2023-07-31T07:10:39;9.20;;;2.80;;
70829;SDS011;58451;51.550;7.208;2023-07-31T07:12:11;9.20;;;3.40;;
70829;SDS011;58451;51.550;7.208;2023-07-31T07:13:43;11.90;;;3.60;;
70829;SDS011;58451;51.550;7.208;2023-07-31T07:15:15;8.50;;;3.20;;
70829;SDS011;58451;51.550;7.208;2023-07-31T07:16:51;11.60;;;3.40;;
70829;SDS011;58451;51.550;7.208;2023-07-31T07:18:23;7.00;;;2.30;;
70829;SDS011;58451;51.550;7.208;2023-07-31T07:19:55;9.00;;;2.80;;
70829;SDS011;58451;51.550;7.208;2023-07-31T07:21:27;7.90;;;2.50;;
70829;SDS011;58451;51.550;7.208;2023-07-31T07:22:59;9.60;;;3.00;;
70829;SDS011;58451;51.550;7.208;2023-07-31T07:24:31;10.40;;;2.90;;
70829;SDS011;58451;51.550;7.208;2023-07-31T07:26:03;9.20;;;3.10;;
70829;SDS011;58451;51.550;7.208;2023-07-31T07:27:35;9.40;;;2.90;;
70829;SDS011;58451;51.550;7.208;2023-07-31T07:29:06;7.70;;;2.90;;
70829;SDS011;58451;51.550;7.208;2023-07-31T07:30:39;9.30;;;3.00;;
70829;SDS011;58451;51.550;7.208;2023-07-31T07:32:13;6.60;;;2.20;;
70829;SDS011;58451;51.550;7.208;2023-07-31T07:33:45;8.60;;;2.50;;
70829;SDS011;58451;51.550;7.208;2023-07-31T07:35:17;9.80;;;2.90;;
70829;SDS011;58451;51.550;7.208;2023-07-31T07:36:48;8.10;;;2.80;;
70829;SDS011;58451;51.550;7.208;2023-07-31T07:38:20;7.40;;;2.60;;
70829;SDS011;58451;51.550;7.208;2023-07-31T07:39:52;7.10;;;2.20;;
70829;SDS011;58451;51.550;7.208;2023-07-31T07:41:24;6.90;;;2.30;;
70829;SDS011;58451;51.550;7.208;2023-07-31T07:42:55;8.80;;;2.60;;
70829;SDS011;58451;51.550;7.208;2023-07-31T07:44:27;10.60;;;3.00;;
70829;SDS011;58451;51.550;7.208;2023-07-31T07:46:00;7.60;;;2.70;;
70829;SDS011;58451;51.550;7.208;2023-07-31T07:47:32;7.40;;;2.60;;
70829;SDS011;58451;51.550;7.208;2023-07-31T07:49:04;9.10;;;2.40;;
70829;SDS011;58451;51.550;7.208;2023-07-31T07:50:38;6.10;;;2.20;;
70829;SDS011;58451;51.550;7.208;2023-07-31T07:52:10;7.60;;;2.40;;
70829;SDS011;58451;51.550;7.208;2023-07-31T07:53:42;6.60;;;2.20;;
70829;SDS011;58451;51.550;7.208;2023-07-31T07:55:14;7.50;;;2.50;;
70829;SDS011;58451;51.550;7.208;2023-07-31T07:56:46;8.10;;;2.70;;
70829;SDS011;58451;51.550;7.208;2023-07-31T07:58:18;8.00;;;2.60;;
70829;SDS011;58451;51.550;7.208;2023-07-31T07:59:50;7.50;;;2.80;;
70829;SDS011;58451;51.550;7.208;2023-07-31T08:01:21;8.20;;;2.70;;
70829;SDS011;58451;51.550;7.208;2023-07-31T08:02:53;7.90;;;2.70;;
70829;SDS011;58451;51.550;7.208;2023-07-31T08:04:25;7.20;;;2.30;;
70829;SDS011;58451;51.550;7.208;2023-07-31T08:06:00;6.60;;;2.40;;
70829;SDS011;58451;51.550;7.208;2023-07-31T08:07:32;7.80;;;1.80;;
70829;SDS011;58451;51.550;7.208;2023-07-31T08:09:04;8.00;;;2.70;;
70829;SDS011;58451;51.550;7.208;2023-07-31T08:10:38;8.80;;;2.80;;
70829;SDS011;58451;51.550;7.208;2023-07-31T08:12:10;9.40;;;2.70;;
70829;SDS011;58451;51.550;7.208;2023-07-31T08:13:41;7.30;;;2.50;;
70829;SDS011;58451;51.550;7.208;2023-07-31T08:15:13;6.70;;;2.30;;
70829;SDS011;58451;51.550;7.208;2023-07-31T08:16:45;7.30;;;2.20;;
70829;SDS011;58451;51.550;7.208;2023-07-31T08:18:17;8.20;;;2.40;;
70829;SDS011;58451;51.550;7.208;2023-07-31T08:19:50;7.90;;;2.00;;
70829;SDS011;58451;51.550;7.208;2023-07-31T08:21:22;5.90;;;2.00;;
70829;SDS011;58451;51.550;7.208;2023-07-31T08:22:54;6.80;;;1.90;;
70829;SDS011;58451;51.550;7.208;2023-07-31T08:24:26;5.80;;;1.50;;
70829;SDS011;58451;51.550;7.208;2023-07-31T08:25:58;5.40;;;1.80;;
70829;SDS011;58451;51.550;7.208;2023-07-31T08:27:30;5.40;;;1.80;;
70829;SDS011;58451;51.550;7.208;2023-07-31T08:29:02;6.40;;;1.60;;
70829;SDS011;58451;51.550;7.208;2023-07-31T08:30:34;4.90;;;1.40;;
70829;SDS011;58451;51.550;7.208;2023-07-31T08:32:06;5.00;;;1.70;;
70829;SDS011;58451;51.550;7.208;2023-07-31T08:33:38;6.30;;;1.60;;
70829;SDS011;58451;51.550;7.208;2023-07-31T08:35:11;5.80;;;1.40;;
70829;SDS011;58451;51.550;7.208;2023-07-31T08:36:43;4.90;;;1.50;;
70829;SDS011;58451;51.550;7.208;2023-07-31T08:38:15;5.30;;;1.70;;
70829;SDS011;58451;51.550;7.208;2023-07-31T08:39:47;8.60;;;1.80;;
70829;SDS011;58451;51.550;7.208;2023-07-31T08:41:19;5.30;;;1.50;;
70829;SDS011;58451;51.550;7.208;2023-07-31T08:42:53;5.10;;;1.60;;
70829;SDS011;58451;51.550;7.208;2023-07-31T08:44:29;5.60;;;1.80;;
70829;SDS011;58451;51.550;7.208;2023-07-31T08:46:03;4.10;;;1.60;;
70829;SDS011;58451;51.550;7.208;2023-07-31T08:47:36;4.80;;;1.60;;
70829;SDS011;58451;51.550;7.208;2023-07-31T08:49:09;5.10;;;1.60;;
70829;SDS011;58451;51.550;7.208;2023-07-31T08:50:43;6.10;;;1.30;;
70829;SDS011;58451;51.550;7.208;2023-07-31T08:52:15;4.10;;;1.30;;
70829;SDS011;58451;51.550;7.208;2023-07-31T08:53:47;6.10;;;1.60;;
70829;SDS011;58451;51.550;7.208;2023-07-31T08:55:19;4.40;;;1.30;;
70829;SDS011;58451;51.550;7.208;2023-07-31T08:56:56;4.60;;;1.50;;
70829;SDS011;58451;51.550;7.208;2023-07-31T08:58:32;4.30;;;1.50;;
70829;SDS011;58451;51.550;7.208;2023-07-31T09:00:06;5.10;;;1.40;;
70829;SDS011;58451;51.550;7.208;2023-07-31T09:01:43;5.80;;;1.60;;
70829;SDS011;58451;51.550;7.208;2023-07-31T09:03:23;5.40;;;1.90;;
70829;SDS011;58451;51.550;7.208;2023-07-31T09:04:57;5.10;;;1.50;;
70829;SDS011;58451;51.550;7.208;2023-07-31T09:06:30;5.10;;;1.50;;
70829;SDS011;58451;51.550;7.208;2023-07-31T09:08:04;4.90;;;1.80;;
70829;SDS011;58451;51.550;7.208;2023-07-31T09:09:37;5.00;;;1.80;;
70829;SDS011;58451;51.550;7.208;2023-07-31T09:11:08;5.00;;;1.40;;
70829;SDS011;58451;51.550;7.208;2023-07-31T09:12:41;4.90;;;1.70;;
70829;SDS011;58451;51.550;7.208;2023-07-31T09:14:13;3.50;;;1.20;;
70829;SDS011;58451;51.550;7.208;2023-07-31T09:15:47;3.70;;;1.50;;
70829;SDS011;58451;51.550;7.208;2023-07-31T09:17:33;6.60;;;1.90;;
70829;SDS011;58451;51.550;7.208;2023-07-31T09:19:08;5.50;;;1.60;;
70829;SDS011;58451;51.550;7.208;2023-07-31T09:20:40;7.60;;;1.80;;
70829;SDS011;58451;51.550;7.208;2023-07-31T09:22:11;5.80;;;1.40;;
70829;SDS011;58451;51.550;7.208;2023-07-31T09:23:45;4.80;;;1.40;;